KCVS/CVS METAR and TAF weather

Enter ICAO airport designator
Station Type Date Time Source
KCVS METAR 2022/11/26 08:58 UTC NOAA

KCVS 260858Z 36007KT 6SM -SN BR BKN008 BKN012 OVC018 01/00 A3009 RMK RAB0753E0754RAB0754E14SNB14E25FZRAB25E40RAB40E51UPB51E52SNB52 CIG 007V009 BKN008 V OVC CIG 007 RWY04 CIG 007 RWY13 CIG 006 RWY31 SLP192 P0005 60019 T00050004 55014 $


Station Type Date Time Source
KCVS Decoded METAR 2022/11/26 08:58 UTC NOAA

Cannon Air Force Base / Clovis, NM, United States (KCVS) 34-23N 103-19W
Nov 26, 2022 - 03:58 AM EST / 2022.11.26 0858 UTC
Wind: from the N (360 degrees) at 8 MPH (7 KT):0
Visibility: 6 mile(s):0
Sky conditions: overcast
Weather: light snow; mist
Precipitation last hour: 0.05 inches
Temperature: 32.9 F (0.5 C)
Windchill: 26 F (-3 C):1
Dew Point: 32.7 F (0.4 C)
Relative Humidity: 99%
Pressure (altimeter): 30.09 in. Hg (1018 hPa)
Pressure tendency: 0.04 inches (1.4 hPa) lower than three hours ago
ob: KCVS 260858Z 36007KT 6SM -SN BR BKN008 BKN012 OVC018 01/00 A3009 RMK RAB0753E0754RAB0754E14SNB14E25FZRAB25E40RAB40E51UPB51E52SNB52 CIG 007V009 BKN008 V OVC CIG 007 RWY04 CIG 007 RWY13 CIG 006 RWY31 SLP192 P0005 60019 T00050004 55014
cycle: 9

Station Type Date Time Source
KCVS TAF 2022/11/24 02:54 UTC NOAA

TAF TAF KCVS 240200Z 2402/2508 27008KT 9999 SCT210 QNH2984INS
BECMG 2407/2408 35012G22KT 9999 BKN180 QNH2989INS
BECMG 2412/2413 01025G35KT 9999 BKN080 520005 QNH2997INS
TEMPO 2413/2417 02030G40KT 8000 BLDU 530005
BECMG 2421/2422 03015G25KT 9999 OVC030 QNH3012INS
BECMG 2423/2424 03010G15KT 9000 SHRA OVC015 650159 QNH3018INS
BECMG 2503/2504 04012KT 8000 -SN OVC007 650079 QNH3029INS
TEMPO 2505/2508 0800 SN OVC005 TX06/2402Z TNM01/ LAST NO
AMDS AFT 2402 NEXT 2812

Example: see airport list